aviador You're here:

FALE Decoded Metar

KING SHAKA INT ARPT in SOUTH AFRICA
Report Time2018-06-21 21:00:00
UTC Time2018-06-21 21:46:22
Flight Rules vfr VFR
Wind200° at 03 kt
W.Decomp.*RWY 24: 2.9 kt HW 0.8 kt LCW
W.Rank200° ranks 2
Current wind is below 200° avg. (8.8)
Visibility9999 m
Phenomena:N/A
Clouds:N/A
Expected CloudBase > 800 ft AGL from Temp-Dew spread
CeilingNone
Temp14°C (ISA -0)
Dew Point12°C (88% RH)
AAT13.6°C
QNH1019 hPa
Density Alt233 ft
Elevation295 ft
Report Wrong Elevation
Raw Report
METAR FALE 212100Z 20003KT CAVOK 14/12 Q1019 NOSIG=

Extra information for FALE:More info

Metar Taf Metar & Taf Last 4 Metars F.Rules Stats Wind Profile Meteogram Temp Stats Airport Information Weather charts Add Link Nearby VenuesMetar ALERT Operation Metar Decoded Social comments